Time;durP1;ratioP1;P1;durP2;ratioP2;P2;SDS_P1;SDS_P2;PMS_P1;PMS_P2;Temp;Humidity;BMP_temperature;BMP_pressure;BME280_temperature;BME280_humidity;BME280_pressure;Samples;Min_cycle;Max_cycle;Signal;HPM_P1;HPM_P2
2021/05/07 00:00:09;;;;;;;22.65;13.30;;;;;;;5.34;100.00;100321.63;6302604;28;20115;-83
2021/05/07 00:03:10;;;;;;;20.15;12.82;;;;;;;5.30;100.00;100321.81;6299830;28;20496;-82
2021/05/07 00:06:12;;;;;;;23.30;14.55;;;;;;;5.25;100.00;100324.59;6301949;28;20056;-83
2021/05/07 00:09:13;;;;;;;18.65;12.40;;;;;;;5.26;100.00;100328.03;6302019;28;20048;-83
2021/05/07 00:12:14;;;;;;;20.38;11.82;;;;;;;5.24;100.00;100329.84;6300706;28;20524;-84
2021/05/07 00:15:15;;;;;;;15.18;10.85;;;;;;;5.08;100.00;100330.41;6300769;28;20133;-83
2021/05/07 00:18:17;;;;;;;18.13;10.90;;;;;;;4.99;100.00;100337.72;6301771;28;20497;-83
2021/05/07 00:21:18;;;;;;;15.80;10.88;;;;;;;4.99;100.00;100335.13;6304789;28;20045;-83
2021/05/07 00:24:19;;;;;;;15.93;11.32;;;;;;;5.04;100.00;100336.69;6304868;28;20566;-83
2021/05/07 00:27:20;;;;;;;16.95;10.93;;;;;;;5.04;100.00;100343.63;6304626;28;20097;-83
2021/05/07 00:30:22;;;;;;;18.65;11.90;;;;;;;4.96;100.00;100359.53;6305853;28;20144;-83
2021/05/07 00:33:23;;;;;;;23.85;12.55;;;;;;;5.05;100.00;100367.00;6306496;28;20097;-83
2021/05/07 00:36:24;;;;;;;19.27;12.85;;;;;;;5.00;100.00;100363.72;6302107;28;20135;-83
2021/05/07 00:39:25;;;;;;;22.58;14.40;;;;;;;4.96;100.00;100363.91;6302512;28;20056;-83
2021/05/07 00:42:26;;;;;;;20.92;14.40;;;;;;;5.06;100.00;100366.09;6301173;28;20127;-84
2021/05/07 00:45:28;;;;;;;19.83;14.10;;;;;;;5.04;100.00;100372.25;6299069;28;20487;-83
2021/05/07 00:48:29;;;;;;;22.38;14.85;;;;;;;4.93;100.00;100377.88;6299078;28;20131;-83
2021/05/07 00:51:29;;;;;;;22.35;13.93;;;;;;;4.86;100.00;100381.63;6298733;28;20085;-83
2021/05/07 00:54:33;;;;;;;24.67;15.25;;;;;;;4.53;100.00;100381.88;6298311;28;20076;-83
2021/05/07 00:57:35;;;;;;;24.17;14.00;;;;;;;4.40;100.00;100385.78;6297970;28;20522;-83
2021/05/07 01:00:36;;;;;;;18.55;13.02;;;;;;;4.53;100.00;100381.88;6298202;28;20044;-83
2021/05/07 01:03:37;;;;;;;18.95;12.57;;;;;;;4.30;100.00;100384.41;6297363;28;20048;-83
2021/05/07 01:06:38;;;;;;;23.55;14.48;;;;;;;4.08;100.00;100381.66;6297856;28;20059;-83
2021/05/07 01:09:39;;;;;;;20.55;13.95;;;;;;;4.20;100.00;100388.22;6298284;28;20058;-83
2021/05/07 01:12:42;;;;;;;20.75;13.63;;;;;;;4.09;100.00;100391.16;6297706;28;20055;-83
2021/05/07 01:15:43;;;;;;;20.05;13.85;;;;;;;4.08;100.00;100387.69;6297728;28;20044;-84
2021/05/07 01:19:04;;;;;;;24.45;14.68;;;;;;;3.91;100.00;100390.00;6299013;28;20102;-84
2021/05/07 01:22:06;;;;;;;25.15;15.25;;;;;;;3.89;100.00;100398.75;6297725;28;20052;-83
2021/05/07 01:25:09;;;;;;;25.15;15.55;;;;;;;4.11;100.00;100397.16;6297449;28;20439;-81
2021/05/07 01:28:12;;;;;;;26.35;15.45;;;;;;;3.92;100.00;100390.84;6297669;28;20511;-84
2021/05/07 01:31:13;;;;;;;25.48;16.77;;;;;;;4.07;100.00;100400.75;6297579;28;20041;-82
2021/05/07 01:34:14;;;;;;;25.90;16.65;;;;;;;4.04;100.00;100396.53;6297048;28;20044;-83
2021/05/07 01:37:16;;;;;;;27.55;17.27;;;;;;;3.87;100.00;100406.59;6297125;28;20517;-81
2021/05/07 01:40:19;;;;;;;30.75;16.52;;;;;;;4.03;100.00;100412.16;6296900;28;20098;-82
2021/05/07 01:43:21;;;;;;;31.73;18.02;;;;;;;4.00;100.00;100409.66;6296407;28;20070;-81
2021/05/07 01:46:21;;;;;;;26.10;15.70;;;;;;;3.93;100.00;100414.19;6297054;28;20052;-82
2021/05/07 01:49:22;;;;;;;23.10;14.77;;;;;;;3.99;100.00;100415.75;6297090;28;20070;-82
2021/05/07 01:52:24;;;;;;;24.08;14.00;;;;;;;3.75;100.00;100418.22;6296644;28;20496;-80
2021/05/07 01:55:27;;;;;;;19.63;12.73;;;;;;;3.74;100.00;100410.47;6296750;28;20049;-81
2021/05/07 01:58:28;;;;;;;19.48;12.70;;;;;;;3.75;100.00;100412.16;6300967;28;20052;-81
2021/05/07 02:01:28;;;;;;;20.38;12.85;;;;;;;3.73;100.00;100412.22;6301378;28;20536;-82
2021/05/07 02:04:29;;;;;;;23.83;12.98;;;;;;;3.67;100.00;100415.00;6301597;28;20518;-82
2021/05/07 02:07:31;;;;;;;20.48;12.85;;;;;;;3.70;100.00;100414.91;6301437;28;20045;-81
2021/05/07 02:10:33;;;;;;;25.38;12.98;;;;;;;3.63;100.00;100415.13;6301210;28;20045;-82
2021/05/07 02:13:34;;;;;;;22.48;13.43;;;;;;;3.67;100.00;100417.59;6300932;28;20052;-80
2021/05/07 02:16:35;;;;;;;19.40;12.63;;;;;;;3.80;100.00;100424.13;6301393;28;20413;-81
2021/05/07 02:19:37;;;;;;;22.58;12.30;;;;;;;3.70;100.00;100421.84;6301653;28;20127;-81
2021/05/07 02:22:39;;;;;;;21.00;12.10;;;;;;;3.53;100.00;100424.94;6301604;28;20048;-81
2021/05/07 02:25:40;;;;;;;19.67;12.30;;;;;;;3.59;100.00;100418.72;6301063;28;20049;-81
2021/05/07 02:28:40;;;;;;;22.05;12.63;;;;;;;3.71;100.00;100410.56;6300844;28;20055;-80
2021/05/07 02:31:41;;;;;;;20.95;13.38;;;;;;;3.84;100.00;100400.63;6301533;28;20052;-81
2021/05/07 02:34:42;;;;;;;21.73;12.95;;;;;;;3.77;100.00;100405.16;6300724;28;20397;-81
2021/05/07 02:37:44;;;;;;;22.88;13.18;;;;;;;3.80;100.00;100400.72;6301312;28;20049;-80
2021/05/07 02:40:45;;;;;;;22.98;13.25;;;;;;;3.83;100.00;100393.75;6300872;28;20053;-80
2021/05/07 02:43:46;;;;;;;22.67;13.52;;;;;;;3.92;100.00;100411.66;6300587;28;20052;-80
2021/05/07 02:46:47;;;;;;;22.15;12.52;;;;;;;3.79;100.00;100416.38;6300830;28;20045;-80
2021/05/07 02:49:48;;;;;;;21.90;13.00;;;;;;;3.78;100.00;100428.53;6301106;28;20123;-80
2021/05/07 02:52:50;;;;;;;22.90;14.50;;;;;;;3.80;100.00;100433.66;6301060;28;20139;-79
2021/05/07 02:55:51;;;;;;;23.30;13.98;;;;;;;3.88;100.00;100439.47;6300596;28;20056;-80
2021/05/07 02:58:52;;;;;;;21.48;13.02;;;;;;;3.72;100.00;100439.09;6300537;28;20053;-80
2021/05/07 03:01:53;;;;;;;18.77;13.20;;;;;;;3.74;100.00;100439.06;6300006;28;20059;-81
2021/05/07 03:04:54;;;;;;;23.55;13.55;;;;;;;3.64;100.00;100442.84;6300619;28;20060;-79
2021/05/07 03:07:56;;;;;;;23.63;14.63;;;;;;;3.69;100.00;100444.41;6299820;28;20082;-80
2021/05/07 03:10:56;;;;;;;24.80;15.05;;;;;;;3.76;100.00;100437.25;6300168;28;20048;-81
2021/05/07 03:13:57;;;;;;;23.35;15.07;;;;;;;3.79;100.00;100444.97;6299773;28;20127;-80
2021/05/07 03:16:58;;;;;;;26.92;14.85;;;;;;;3.80;100.00;100446.66;6300183;28;20044;-80
2021/05/07 03:19:59;;;;;;;25.55;15.23;;;;;;;3.80;100.00;100457.91;6300246;28;20148;-80
2021/05/07 03:23:01;;;;;;;24.23;14.30;;;;;;;3.85;100.00;100459.50;6299809;28;20190;-80
2021/05/07 03:26:01;;;;;;;20.23;13.13;;;;;;;3.75;100.00;100469.34;6300103;28;20055;-81
2021/05/07 03:29:02;;;;;;;21.92;13.57;;;;;;;3.81;100.00;100471.75;6299968;28;20429;-81
2021/05/07 03:32:05;;;;;;;20.27;13.02;;;;;;;3.75;100.00;100475.38;6300110;28;20045;-80
2021/05/07 03:35:07;;;;;;;24.55;13.70;;;;;;;3.85;100.00;100485.50;6299307;28;20412;-80
2021/05/07 03:38:09;;;;;;;22.25;13.07;;;;;;;3.73;100.00;100487.59;6299581;28;20068;-79
2021/05/07 03:41:10;;;;;;;20.48;13.02;;;;;;;3.85;100.00;100482.91;6299594;28;20057;-80
2021/05/07 03:44:11;;;;;;;19.98;12.18;;;;;;;3.75;100.00;100485.78;6299227;28;20048;-80
2021/05/07 03:47:12;;;;;;;16.92;10.75;;;;;;;3.87;100.00;100491.53;6299043;28;20082;-80
2021/05/07 03:50:13;;;;;;;27.80;13.18;;;;;;;3.71;100.00;100504.09;6299661;28;20554;-79
2021/05/07 03:53:16;;;;;;;17.40;11.80;;;;;;;3.72;100.00;100503.19;6299270;28;20051;-80
2021/05/07 03:56:17;;;;;;;21.48;11.40;;;;;;;3.72;100.00;100509.25;6299314;28;20049;-80
2021/05/07 03:59:18;;;;;;;16.52;11.13;;;;;;;3.74;100.00;100504.88;6298916;28;20083;-79
2021/05/07 04:02:19;;;;;;;17.70;11.23;;;;;;;3.71;100.00;100514.50;6298481;28;20131;-80
2021/05/07 04:05:20;;;;;;;16.88;11.20;;;;;;;3.71;100.00;100506.69;6298685;28;20052;-79
2021/05/07 04:08:24;;;;;;;15.70;9.63;;;;;;;3.67;100.00;100516.31;6298806;28;20462;-80
2021/05/07 04:11:30;;;;;;;18.30;10.73;;;;;;;3.66;100.00;100522.44;6298975;28;20402;-80
2021/05/07 04:14:31;;;;;;;16.85;9.88;;;;;;;3.67;100.00;100528.47;6298573;28;20049;-79
2021/05/07 04:17:32;;;;;;;15.35;10.18;;;;;;;3.62;100.00;100536.41;6298626;28;20487;-80
2021/05/07 04:20:33;;;;;;;16.80;10.35;;;;;;;3.61;100.00;100532.09;6298092;28;20055;-79
2021/05/07 04:23:35;;;;;;;15.68;9.43;;;;;;;3.59;100.00;100539.09;6298436;28;20162;-80
2021/05/07 04:26:35;;;;;;;15.75;9.50;;;;;;;3.55;100.00;100548.72;6298365;28;20051;-80
2021/05/07 04:29:36;;;;;;;15.65;9.20;;;;;;;3.55;100.00;100550.47;6298366;28;20428;-80
2021/05/07 04:32:37;;;;;;;16.98;10.43;;;;;;;3.71;100.00;100556.06;6299707;28;20049;-79
2021/05/07 04:35:38;;;;;;;16.25;10.38;;;;;;;3.62;100.00;100557.19;6299221;28;20048;-80
2021/05/07 04:38:40;;;;;;;16.27;10.55;;;;;;;3.53;100.00;100553.09;6299532;28;20138;-80
2021/05/07 04:41:41;;;;;;;17.45;10.80;;;;;;;3.63;100.00;100556.28;6296455;28;20045;-81
2021/05/07 04:44:42;;;;;;;18.40;10.88;;;;;;;3.89;100.00;100554.69;6295515;28;20074;-80
2021/05/07 04:47:43;;;;;;;17.08;10.15;;;;;;;3.84;100.00;100556.59;6298799;28;20087;-80
2021/05/07 04:50:44;;;;;;;16.02;10.07;;;;;;;3.75;100.00;100560.31;6298471;28;20516;-79
2021/05/07 04:53:46;;;;;;;16.63;10.57;;;;;;;3.68;100.00;100571.75;6291857;28;20182;-81
2021/05/07 04:56:47;;;;;;;19.45;10.90;;;;;;;3.90;100.00;100567.66;6298189;28;20389;-80
2021/05/07 04:59:48;;;;;;;17.60;10.63;;;;;;;3.86;100.00;100570.38;6297942;28;20064;-78
2021/05/07 05:02:49;;;;;;;22.52;11.93;;;;;;;3.84;100.00;100578.22;6297786;28;20587;-79
2021/05/07 05:05:50;;;;;;;20.92;12.63;;;;;;;3.79;100.00;100574.91;6297872;28;20570;-80
2021/05/07 05:08:51;;;;;;;22.88;13.43;;;;;;;3.84;100.00;100579.97;6298115;28;20066;-79
2021/05/07 05:11:53;;;;;;;23.85;14.48;;;;;;;3.87;100.00;100577.31;6297583;28;20041;-79
2021/05/07 05:14:53;;;;;;;28.05;15.40;;;;;;;3.99;100.00;100595.13;6298767;28;20074;-79
2021/05/07 05:17:54;;;;;;;29.67;16.40;;;;;;;3.85;100.00;100589.47;6297857;28;20056;-80
2021/05/07 05:20:57;;;;;;;31.65;16.13;;;;;;;3.90;100.00;100605.78;6298276;28;20131;-79
2021/05/07 05:24:00;;;;;;;31.60;17.88;;;;;;;3.87;100.00;100619.75;6298282;28;20044;-78
2021/05/07 05:27:00;;;;;;;34.40;19.85;;;;;;;3.93;100.00;100610.91;6298578;28;20083;-79
2021/05/07 05:30:01;;;;;;;32.25;19.50;;;;;;;4.06;100.00;100620.91;6297767;28;20087;-79
2021/05/07 05:33:03;;;;;;;32.67;20.38;;;;;;;3.93;100.00;100614.38;6297659;28;20048;-79
2021/05/07 05:36:05;;;;;;;39.85;22.33;;;;;;;3.97;100.00;100628.97;6297437;28;20049;-79
2021/05/07 05:39:09;;;;;;;37.80;22.55;;;;;;;4.01;100.00;100627.16;6297804;28;20048;-79
2021/05/07 05:42:10;;;;;;;38.33;23.60;;;;;;;4.04;100.00;100630.53;6297453;28;20094;-79
2021/05/07 05:45:13;;;;;;;32.65;21.55;;;;;;;4.01;100.00;100643.59;6296828;28;20408;-80
2021/05/07 05:48:17;;;;;;;33.60;20.08;;;;;;;4.02;100.00;100653.09;6297453;28;20048;-81
2021/05/07 05:51:18;;;;;;;34.65;21.55;;;;;;;4.25;100.00;100652.44;6297726;28;20413;-81
2021/05/07 05:54:20;;;;;;;37.42;20.88;;;;;;;4.17;100.00;100663.97;6297794;28;20136;-80
2021/05/07 05:57:21;;;;;;;34.92;21.45;;;;;;;4.19;100.00;100655.25;6297874;28;20067;-80
2021/05/07 06:00:23;;;;;;;37.33;22.05;;;;;;;4.33;100.00;100658.28;6298014;28;20048;-81
2021/05/07 06:03:24;;;;;;;32.38;20.00;;;;;;;4.46;100.00;100660.53;6296367;28;20052;-80
2021/05/07 06:06:24;;;;;;;29.25;19.38;;;;;;;4.43;100.00;100656.25;6296746;28;20101;-80
2021/05/07 06:09:27;;;;;;;31.15;18.92;;;;;;;4.42;100.00;100656.31;6297231;28;20501;-80
2021/05/07 06:12:28;;;;;;;29.48;19.65;;;;;;;4.42;100.00;100669.34;6297693;28;20135;-81
2021/05/07 06:15:29;;;;;;;27.20;17.48;;;;;;;4.61;100.00;100667.03;6296916;28;20059;-79
2021/05/07 06:18:29;;;;;;;25.50;16.17;;;;;;;4.56;100.00;100664.56;6297263;28;20120;-79
2021/05/07 06:21:30;;;;;;;25.75;15.82;;;;;;;4.58;100.00;100661.00;6297111;28;20045;-80
2021/05/07 06:24:32;;;;;;;25.58;15.20;;;;;;;4.74;100.00;100671.81;6296817;28;20060;-79
2021/05/07 06:27:33;;;;;;;20.42;13.80;;;;;;;5.01;100.00;100677.06;6297295;28;20098;-80
2021/05/07 06:30:34;;;;;;;21.80;14.15;;;;;;;4.93;100.00;100668.66;6297106;28;20048;-81
2021/05/07 06:33:35;;;;;;;19.73;12.25;;;;;;;5.06;100.00;100683.00;6297068;28;20447;-81
2021/05/07 06:36:36;;;;;;;20.35;12.15;;;;;;;5.00;100.00;100683.19;6297118;28;20055;-80
2021/05/07 06:39:37;;;;;;;17.58;12.02;;;;;;;4.98;99.76;100684.97;6297359;28;20094;-80
2021/05/07 06:42:38;;;;;;;16.67;11.60;;;;;;;4.98;99.99;100691.03;6296625;28;20044;-77
2021/05/07 06:45:39;;;;;;;23.95;12.82;;;;;;;4.80;100.00;100694.19;6299967;28;20245;-80
2021/05/07 06:48:41;;;;;;;22.13;13.65;;;;;;;4.75;100.00;100702.16;6300841;28;20048;-81
2021/05/07 06:51:42;;;;;;;22.65;12.77;;;;;;;4.89;100.00;100696.53;6300928;28;20041;-79
2021/05/07 06:54:44;;;;;;;25.33;13.57;;;;;;;4.77;100.00;100708.19;6300833;28;20492;-81
2021/05/07 06:57:46;;;;;;;19.73;13.93;;;;;;;4.65;100.00;100708.53;6300921;28;20045;-81
2021/05/07 07:00:46;;;;;;;22.15;13.32;;;;;;;4.64;100.00;100721.59;6301233;28;20045;-81
2021/05/07 07:03:47;;;;;;;18.98;12.98;;;;;;;4.59;100.00;100719.13;6301470;28;20128;-81
2021/05/07 07:06:48;;;;;;;21.63;13.52;;;;;;;4.61;100.00;100725.13;6300551;28;20075;-82
2021/05/07 07:09:50;;;;;;;20.75;13.30;;;;;;;4.72;100.00;100737.81;6300545;28;20063;-79
2021/05/07 07:12:51;;;;;;;13.80;9.55;;;;;;;4.72;100.00;100733.47;6300491;28;20045;-79
2021/05/07 07:15:52;;;;;;;21.00;8.73;;;;;;;4.75;100.00;100738.59;6299643;28;20055;-79
2021/05/07 07:18:53;;;;;;;12.00;7.43;;;;;;;4.92;97.03;100751.13;6299921;28;20053;-79
2021/05/07 07:21:54;;;;;;;10.43;6.63;;;;;;;4.88;97.86;100751.25;6299857;28;20118;-80
2021/05/07 07:24:55;;;;;;;13.25;7.00;;;;;;;4.72;97.98;100749.09;6299663;28;20079;-81
2021/05/07 07:27:56;;;;;;;10.13;6.78;;;;;;;4.82;98.07;100754.91;6299942;28;20485;-79
2021/05/07 07:30:57;;;;;;;12.68;7.00;;;;;;;4.75;100.00;100753.38;6299725;28;20144;-80
2021/05/07 07:33:59;;;;;;;12.23;7.97;;;;;;;4.78;100.00;100754.13;6300023;28;20048;-80
2021/05/07 07:36:59;;;;;;;9.65;7.15;;;;;;;4.81;98.82;100767.06;6297383;28;20048;-81
2021/05/07 07:40:01;;;;;;;10.82;7.07;;;;;;;5.03;98.75;100762.06;6290483;28;20139;-80
2021/05/07 07:43:02;;;;;;;11.85;7.93;;;;;;;4.89;100.00;100771.19;6293125;28;20047;-80
2021/05/07 07:46:03;;;;;;;12.55;9.10;;;;;;;4.72;99.63;100769.06;6298727;28;20048;-83
2021/05/07 07:49:04;;;;;;;10.65;7.72;;;;;;;4.74;97.94;100783.75;6295191;28;20049;-79
2021/05/07 07:52:07;;;;;;;11.27;8.07;;;;;;;4.68;99.63;100780.47;6297244;28;20048;-81
2021/05/07 07:55:10;;;;;;;15.15;7.15;;;;;;;4.73;97.84;100792.47;6298953;28;20044;-79
2021/05/07 07:58:11;;;;;;;13.73;7.57;;;;;;;4.90;96.73;100793.72;6299185;28;20405;-80
2021/05/07 08:01:12;;;;;;;9.55;6.10;;;;;;;4.86;96.61;100792.97;6299484;28;20125;-81
2021/05/07 08:04:16;;;;;;;11.60;6.95;;;;;;;5.03;96.23;100801.13;6298940;28;20075;-80
2021/05/07 08:07:17;;;;;;;11.27;6.88;;;;;;;4.94;96.12;100804.00;6298618;28;20048;-79
2021/05/07 08:10:19;;;;;;;13.38;6.80;;;;;;;4.82;96.90;100806.97;6298146;28;20056;-81
2021/05/07 08:13:20;;;;;;;10.57;6.35;;;;;;;4.90;95.95;100815.41;6297538;28;20041;-79
2021/05/07 08:16:21;;;;;;;9.65;6.03;;;;;;;4.91;96.24;100821.47;6298957;28;20080;-80
2021/05/07 08:19:22;;;;;;;10.73;6.45;;;;;;;4.90;95.51;100824.97;6298381;28;20048;-80
2021/05/07 08:22:22;;;;;;;12.05;7.00;;;;;;;5.21;96.13;100835.34;6298875;28;20044;-79
2021/05/07 08:25:24;;;;;;;8.43;6.40;;;;;;;5.37;93.17;100844.41;6298285;28;20127;-79
2021/05/07 08:28:25;;;;;;;11.32;6.13;;;;;;;5.25;95.31;100840.41;6287658;28;20045;-80
2021/05/07 08:31:26;;;;;;;12.25;6.90;;;;;;;5.12;95.75;100854.69;6298077;28;20045;-82
2021/05/07 08:34:27;;;;;;;9.05;5.72;;;;;;;5.14;95.19;100862.50;6287085;28;20053;-83
2021/05/07 08:37:28;;;;;;;12.38;6.40;;;;;;;5.34;94.19;100863.59;6285635;28;20052;-81
2021/05/07 08:40:30;;;;;;;8.50;6.13;;;;;;;5.24;95.89;100869.13;6290081;28;20082;-80
2021/05/07 08:43:31;;;;;;;9.13;6.47;;;;;;;5.22;96.11;100876.13;6289100;28;20496;-82
2021/05/07 08:46:33;;;;;;;8.80;6.07;;;;;;;5.19;93.12;100886.66;6297995;28;20090;-81
2021/05/07 08:49:35;;;;;;;10.40;6.40;;;;;;;5.20;93.47;100889.19;6297748;28;20060;-78
2021/05/07 08:52:36;;;;;;;10.70;6.57;;;;;;;5.22;93.10;100894.34;6297664;28;20044;-80
2021/05/07 08:55:38;;;;;;;10.88;6.60;;;;;;;5.39;93.40;100904.28;6295898;28;20068;-80
2021/05/07 08:58:39;;;;;;;9.43;6.63;;;;;;;5.37;92.98;100903.50;6283258;28;20056;-84
2021/05/07 09:01:44;;;;;;;10.02;6.50;;;;;;;5.18;94.26;100905.75;6298406;28;20184;-86
2021/05/07 09:04:49;;;;;;;8.82;6.05;;;;;;;5.17;96.03;100911.88;6298596;28;20055;-88
2021/05/07 09:07:54;;;;;;;10.65;7.03;;;;;;;5.40;94.47;100916.41;6300032;28;20617;-84
2021/05/07 09:11:01;;;;;;;7.68;5.40;;;;;;;5.27;93.08;100916.81;6298840;28;20048;-86
2021/05/07 09:14:03;;;;;;;8.95;6.13;;;;;;;5.47;93.17;100925.78;6324896;22;20131;-85
2021/05/07 09:17:04;;;;;;;8.98;5.85;;;;;;;5.53;92.08;100923.84;6274046;28;20045;-83
2021/05/07 09:20:08;;;;;;;10.43;5.97;;;;;;;5.49;93.54;100931.78;6273482;28;20068;-85
2021/05/07 09:23:12;;;;;;;11.02;5.95;;;;;;;5.62;91.93;100935.75;6275581;28;20045;-83
2021/05/07 09:26:14;;;;;;;9.23;6.50;;;;;;;6.00;89.64;100939.84;6273733;28;20122;-82
2021/05/07 09:29:23;;;;;;;11.90;7.05;;;;;;;5.89;90.09;100943.63;6273032;28;20501;-79
2021/05/07 09:32:30;;;;;;;7.93;6.20;;;;;;;5.83;88.69;100950.75;6273570;28;20053;-80
2021/05/07 09:35:31;;;;;;;9.20;5.85;;;;;;;5.87;90.16;100951.53;6270427;28;20091;-80
2021/05/07 09:38:33;;;;;;;9.60;5.85;;;;;;;5.82;89.21;100951.66;6272644;28;20557;-83
2021/05/07 09:41:40;;;;;;;16.80;6.15;;;;;;;5.95;89.23;100954.78;6271588;28;20056;-80
2021/05/07 09:44:41;;;;;;;7.65;5.50;;;;;;;5.94;88.51;100957.41;6270926;28;20053;-81
2021/05/07 09:47:42;;;;;;;7.60;5.50;;;;;;;5.86;88.80;100968.06;6273318;28;20187;-81
2021/05/07 09:50:43;;;;;;;7.22;5.18;;;;;;;5.86;89.10;100968.06;6273039;28;20053;-83
2021/05/07 09:53:44;;;;;;;6.70;5.00;;;;;;;6.26;83.88;100972.91;6272175;28;20049;-78
2021/05/07 09:56:47;;;;;;;11.20;5.80;;;;;;;6.03;86.41;100980.59;6272465;28;20163;-82
2021/05/07 09:59:48;;;;;;;6.82;5.00;;;;;;;6.04;84.57;100985.81;6272652;28;20045;-85
2021/05/07 10:02:49;;;;;;;7.57;5.30;;;;;;;6.21;85.08;100984.41;6271132;28;20041;-80
2021/05/07 10:05:51;;;;;;;7.07;5.13;;;;;;;6.19;85.32;100989.69;6282220;28;20194;-81
2021/05/07 10:08:52;;;;;;;7.63;4.80;;;;;;;6.39;82.85;100982.97;6276907;28;20508;-81
2021/05/07 10:11:55;;;;;;;8.73;5.35;;;;;;;6.33;85.25;100987.50;6271673;28;20045;-81
2021/05/07 10:14:57;;;;;;;7.60;5.03;;;;;;;6.67;86.64;100983.75;6271895;28;20072;-83
2021/05/07 10:17:58;;;;;;;6.65;4.25;;;;;;;6.87;81.25;100985.72;6272542;28;20045;-82
2021/05/07 10:21:01;;;;;;;5.60;4.22;;;;;;;7.03;82.53;100983.41;6281360;28;20071;-81
2021/05/07 10:24:03;;;;;;;7.78;4.28;;;;;;;6.91;83.00;100996.94;6279647;28;20064;-82
2021/05/07 10:27:16;;;;;;;5.32;3.22;;;;;;;7.08;80.63;100986.72;6287230;28;20049;-82
2021/05/07 10:30:28;;;;;;;8.52;3.80;;;;;;;7.22;81.05;100988.84;6291869;28;20048;-83
2021/05/07 10:33:29;;;;;;;5.60;3.53;;;;;;;7.42;79.80;100999.47;6285659;28;20059;-80
2021/05/07 10:36:36;;;;;;;4.53;2.95;;;;;;;7.30;79.39;100989.44;6284987;28;20076;-83
2021/05/07 10:39:50;;;;;;;6.88;3.20;;;;;;;7.34;78.09;101001.50;6278643;28;20049;-82
2021/05/07 10:42:59;;;;;;;6.13;3.20;;;;;;;7.64;74.47;100999.53;6277593;28;20048;-81
2021/05/07 10:45:59;;;;;;;3.40;2.78;;;;;;;7.68;75.94;101000.28;6278437;28;20045;-83
2021/05/07 10:49:00;;;;;;;8.27;3.25;;;;;;;8.40;73.06;101003.56;6277218;28;20052;-81
2021/05/07 10:52:02;;;;;;;3.60;2.30;;;;;;;8.34;70.74;100995.94;6277410;28;20045;-82
2021/05/07 10:55:06;;;;;;;5.00;2.70;;;;;;;8.18;71.91;100994.88;6278624;28;20166;-82
2021/05/07 10:58:07;;;;;;;3.45;2.47;;;;;;;8.14;73.04;101001.97;6287745;28;20056;-89
2021/05/07 11:01:20;;;;;;;3.72;2.63;;;;;;;8.51;72.81;100997.94;6280836;28;20497;-79
2021/05/07 11:04:21;;;;;;;2.97;2.55;;;;;;;8.73;69.61;101005.75;6286785;28;20052;-79
2021/05/07 11:07:27;;;;;;;4.60;2.45;;;;;;;8.78;68.35;101009.03;6281746;28;20099;-80
2021/05/07 11:10:29;;;;;;;5.50;2.60;;;;;;;8.49;70.98;101021.53;6283759;28;20456;-82
2021/05/07 11:13:31;;;;;;;3.50;2.67;;;;;;;8.20;74.07;101021.81;6285727;28;20103;-79
2021/05/07 11:16:40;;;;;;;4.15;2.88;;;;;;;8.47;73.73;101019.91;6276744;28;20045;-82
2021/05/07 11:19:43;;;;;;;5.80;2.58;;;;;;;8.64;70.08;101023.56;6276650;28;20045;-81
2021/05/07 11:22:44;;;;;;;3.95;2.80;;;;;;;8.69;69.33;101026.00;6279425;28;20045;-82
2021/05/07 11:25:46;;;;;;;7.50;2.28;;;;;;;9.00;69.87;101015.09;6277655;28;20119;-86
2021/05/07 11:28:48;;;;;;;3.72;2.10;;;;;;;9.36;68.10;101006.56;6276800;28;20059;-84
2021/05/07 11:31:49;;;;;;;3.50;2.40;;;;;;;9.75;68.26;101011.75;6276119;28;20056;-81
2021/05/07 11:34:51;;;;;;;3.47;1.92;;;;;;;10.24;64.07;101014.75;6275046;28;20060;-80
2021/05/07 11:37:55;;;;;;;3.03;1.77;;;;;;;10.36;62.50;101016.81;6276962;28;20073;-80
2021/05/07 11:40:56;;;;;;;4.53;1.88;;;;;;;10.44;62.32;101012.94;6274523;28;20045;-80
2021/05/07 11:44:07;;;;;;;7.22;1.85;;;;;;;11.00;58.04;101025.94;6275638;28;20052;-81
2021/05/07 11:47:09;;;;;;;1.90;1.33;;;;;;;11.26;54.81;101013.19;6274850;28;20493;-78
2021/05/07 11:50:13;;;;;;;4.88;2.42;;;;;;;10.57;57.18;101033.28;6275151;28;20083;-78
2021/05/07 11:53:18;;;;;;;5.93;2.25;;;;;;;10.32;57.57;101033.66;6271628;28;20049;-78
2021/05/07 11:56:21;;;;;;;2.13;1.60;;;;;;;10.02;57.58;101037.66;6274524;28;20490;-80
2021/05/07 11:59:24;;;;;;;5.65;1.50;;;;;;;9.52;59.81;101053.94;6273887;28;20049;-81
2021/05/07 12:02:26;;;;;;;3.22;1.17;;;;;;;9.31;60.33;101055.69;6274532;28;20045;-78
2021/05/07 12:05:31;;;;;;;2.33;1.40;;;;;;;9.05;64.00;101052.44;6273459;28;20049;-77
2021/05/07 12:08:34;;;;;;;2.70;1.55;;;;;;;9.06;67.16;101066.41;6274371;28;20075;-80
2021/05/07 12:11:36;;;;;;;3.10;1.30;;;;;;;8.94;64.35;101087.88;6273859;28;20064;-78
2021/05/07 12:14:38;;;;;;;2.15;1.60;;;;;;;8.53;64.56;101090.38;6272353;28;20049;-76
2021/05/07 12:17:40;;;;;;;5.50;1.73;;;;;;;8.34;67.94;101072.72;6274029;28;20059;-78
2021/05/07 12:20:43;;;;;;;1.65;1.08;;;;;;;8.57;68.18;101081.50;6274047;28;20053;-79
2021/05/07 12:23:46;;;;;;;2.97;1.58;;;;;;;9.07;67.64;101084.66;6273512;28;20052;-81
2021/05/07 12:26:48;;;;;;;3.58;1.10;;;;;;;9.80;63.70;101075.38;6273888;28;20052;-77
2021/05/07 12:29:50;;;;;;;2.78;1.48;;;;;;;10.70;59.09;101075.63;6272938;28;20045;-75
2021/05/07 12:33:11;;;;;;;3.92;1.52;;;;;;;11.30;59.57;101080.53;6272734;28;20048;-77
2021/05/07 12:36:17;;;;;;;2.30;1.50;;;;;;;10.89;57.96;101083.44;6248687;28;20567;-78
2021/05/07 12:39:18;;;;;;;2.17;1.17;;;;;;;10.50;60.77;101089.72;6249152;28;20415;-80
2021/05/07 12:42:19;;;;;;;1.65;1.20;;;;;;;10.22;60.37;101092.75;6247622;28;20045;-79
2021/05/07 12:45:21;;;;;;;2.75;1.50;;;;;;;9.84;61.10;101110.22;6247504;28;20103;-79
2021/05/07 12:48:21;;;;;;;2.30;1.52;;;;;;;8.97;67.17;101141.03;6247797;28;20494;-77
2021/05/07 12:51:23;;;;;;;1.85;1.50;;;;;;;8.20;76.72;101153.56;6247733;28;20060;-77
2021/05/07 12:54:24;;;;;;;1.25;1.15;;;;;;;7.52;80.42;101178.66;6246749;28;20417;-76
2021/05/07 12:57:25;;;;;;;4.35;1.70;;;;;;;6.86;86.77;101179.94;6247629;28;20050;-77
2021/05/07 13:00:27;;;;;;;2.45;1.27;;;;;;;6.67;89.88;101163.09;6253608;28;20068;-77
2021/05/07 13:03:28;;;;;;;2.20;1.90;;;;;;;6.64;94.50;101166.69;6271457;28;20041;-76
2021/05/07 13:06:30;;;;;;;2.60;1.77;;;;;;;6.68;93.69;101157.84;6272312;28;20087;-77
2021/05/07 13:09:46;;;;;;;4.38;2.20;;;;;;;7.41;93.70;101159.88;6272843;28;20099;-80
2021/05/07 13:12:47;;;;;;;2.67;1.83;;;;;;;8.31;89.57;101155.78;6272497;28;20517;-77
2021/05/07 13:15:49;;;;;;;1.50;1.40;;;;;;;8.98;87.25;101163.69;6273363;28;20053;-77
2021/05/07 13:18:50;;;;;;;4.10;1.67;;;;;;;9.61;83.50;101161.09;6274398;28;20118;-77
2021/05/07 13:21:53;;;;;;;2.33;1.30;;;;;;;10.12;78.90;101149.22;6273511;28;20045;-77
2021/05/07 13:24:54;;;;;;;2.95;1.40;;;;;;;10.46;73.10;101155.63;6272885;28;20098;-78
2021/05/07 13:27:55;;;;;;;6.03;1.20;;;;;;;10.64;69.09;101160.88;6272624;28;20037;-80
2021/05/07 13:30:57;;;;;;;3.72;1.48;;;;;;;10.75;66.29;101155.09;6272525;28;20461;-81
2021/05/07 13:33:58;;;;;;;2.35;1.48;;;;;;;11.17;68.86;101162.72;6271114;28;20045;-82
2021/05/07 13:37:01;;;;;;;2.75;1.48;;;;;;;11.15;64.99;101158.44;6273912;28;20049;-80
2021/05/07 13:40:03;;;;;;;1.75;1.27;;;;;;;11.23;66.54;101158.06;6273870;28;20048;-79
2021/05/07 13:43:05;;;;;;;1.73;1.10;;;;;;;11.26;61.40;101155.28;6273709;28;20386;-79
2021/05/07 13:46:07;;;;;;;3.85;1.30;;;;;;;11.05;62.10;101162.47;6272529;28;20037;-78
2021/05/07 13:49:08;;;;;;;3.78;1.45;;;;;;;10.88;62.31;101158.00;6274075;28;20060;-83
2021/05/07 13:52:09;;;;;;;4.80;1.40;;;;;;;10.91;61.32;101157.88;6274494;28;20045;-81
2021/05/07 13:55:11;;;;;;;2.35;1.40;;;;;;;10.68;63.49;101155.47;6277190;28;20492;-82
2021/05/07 13:58:12;;;;;;;6.70;1.60;;;;;;;10.64;61.40;101174.03;6278065;28;20520;-79